sensor_id;sensor_type;location;lat;lon;timestamp;P1;durP1;ratioP1;P2;durP2;ratioP2
9934;SDS011;5006;41.828;23.478;2022-11-30T00:00:54;9.25;;;8.35;;
9934;SDS011;5006;41.828;23.478;2022-11-30T00:02:00;7.63;;;6.93;;
9934;SDS011;5006;41.828;23.478;2022-11-30T00:03:05;7.93;;;7.13;;
9934;SDS011;5006;41.828;23.478;2022-11-30T00:04:11;7.55;;;6.57;;
9934;SDS011;5006;41.828;23.478;2022-11-30T00:05:16;7.22;;;6.53;;
9934;SDS011;5006;41.828;23.478;2022-11-30T00:06:22;6.97;;;6.38;;
9934;SDS011;5006;41.828;23.478;2022-11-30T00:07:27;6.88;;;6.28;;
9934;SDS011;5006;41.828;23.478;2022-11-30T00:08:33;7.13;;;6.30;;
9934;SDS011;5006;41.828;23.478;2022-11-30T00:09:37;7.68;;;6.88;;
9934;SDS011;5006;41.828;23.478;2022-11-30T00:10:43;7.35;;;6.65;;
9934;SDS011;5006;41.828;23.478;2022-11-30T00:11:47;6.97;;;6.38;;
9934;SDS011;5006;41.828;23.478;2022-11-30T00:12:53;7.40;;;6.70;;
9934;SDS011;5006;41.828;23.478;2022-11-30T00:13:57;7.10;;;6.45;;
9934;SDS011;5006;41.828;23.478;2022-11-30T00:15:03;6.90;;;6.20;;
9934;SDS011;5006;41.828;23.478;2022-11-30T00:16:10;6.72;;;6.13;;
9934;SDS011;5006;41.828;23.478;2022-11-30T00:17:16;6.50;;;5.90;;
9934;SDS011;5006;41.828;23.478;2022-11-30T00:18:20;6.47;;;5.88;;
9934;SDS011;5006;41.828;23.478;2022-11-30T00:19:26;6.45;;;5.85;;
9934;SDS011;5006;41.828;23.478;2022-11-30T00:20:31;6.50;;;5.90;;
9934;SDS011;5006;41.828;23.478;2022-11-30T00:21:36;6.78;;;6.18;;
9934;SDS011;5006;41.828;23.478;2022-11-30T00:22:41;6.47;;;5.88;;
9934;SDS011;5006;41.828;23.478;2022-11-30T00:23:46;6.68;;;6.07;;
9934;SDS011;5006;41.828;23.478;2022-11-30T00:24:52;6.45;;;5.85;;
9934;SDS011;5006;41.828;23.478;2022-11-30T00:25:58;6.78;;;6.18;;
9934;SDS011;5006;41.828;23.478;2022-11-30T00:27:05;6.07;;;5.55;;
9934;SDS011;5006;41.828;23.478;2022-11-30T00:28:11;6.35;;;5.75;;
9934;SDS011;5006;41.828;23.478;2022-11-30T00:29:16;5.50;;;5.00;;
9934;SDS011;5006;41.828;23.478;2022-11-30T00:30:22;5.32;;;4.82;;
9934;SDS011;5006;41.828;23.478;2022-11-30T00:31:28;5.75;;;5.25;;
9934;SDS011;5006;41.828;23.478;2022-11-30T00:32:34;5.65;;;5.18;;
9934;SDS011;5006;41.828;23.478;2022-11-30T00:33:38;6.53;;;5.93;;
9934;SDS011;5006;41.828;23.478;2022-11-30T00:34:44;5.93;;;5.32;;
9934;SDS011;5006;41.828;23.478;2022-11-30T00:35:54;5.70;;;5.20;;
9934;SDS011;5006;41.828;23.478;2022-11-30T00:37:01;5.40;;;4.90;;
9934;SDS011;5006;41.828;23.478;2022-11-30T00:38:05;5.35;;;4.85;;
9934;SDS011;5006;41.828;23.478;2022-11-30T00:39:11;5.22;;;4.82;;
9934;SDS011;5006;41.828;23.478;2022-11-30T00:40:15;5.30;;;4.80;;
9934;SDS011;5006;41.828;23.478;2022-11-30T00:41:21;5.75;;;5.25;;
9934;SDS011;5006;41.828;23.478;2022-11-30T00:42:25;5.20;;;4.70;;
9934;SDS011;5006;41.828;23.478;2022-11-30T00:43:31;5.10;;;4.70;;
9934;SDS011;5006;41.828;23.478;2022-11-30T00:44:36;5.10;;;4.60;;
9934;SDS011;5006;41.828;23.478;2022-11-30T00:45:41;5.65;;;5.15;;
9934;SDS011;5006;41.828;23.478;2022-11-30T00:46:47;5.50;;;5.00;;
9934;SDS011;5006;41.828;23.478;2022-11-30T00:47:53;5.18;;;4.78;;
9934;SDS011;5006;41.828;23.478;2022-11-30T00:48:57;7.78;;;7.07;;
9934;SDS011;5006;41.828;23.478;2022-11-30T00:50:03;7.07;;;6.38;;
9934;SDS011;5006;41.828;23.478;2022-11-30T00:51:09;6.82;;;6.22;;
9934;SDS011;5006;41.828;23.478;2022-11-30T00:52:15;6.53;;;5.85;;
9934;SDS011;5006;41.828;23.478;2022-11-30T00:53:20;6.65;;;5.95;;
9934;SDS011;5006;41.828;23.478;2022-11-30T00:54:26;6.07;;;5.57;;
9934;SDS011;5006;41.828;23.478;2022-11-30T00:55:30;5.78;;;5.28;;
9934;SDS011;5006;41.828;23.478;2022-11-30T00:56:36;6.25;;;5.30;;
9934;SDS011;5006;41.828;23.478;2022-11-30T00:57:42;6.80;;;6.10;;
9934;SDS011;5006;41.828;23.478;2022-11-30T00:58:46;6.72;;;6.03;;
9934;SDS011;5006;41.828;23.478;2022-11-30T00:59:52;7.10;;;6.40;;
9934;SDS011;5006;41.828;23.478;2022-11-30T01:00:57;6.90;;;6.20;;
9934;SDS011;5006;41.828;23.478;2022-11-30T01:02:03;6.78;;;6.18;;
9934;SDS011;5006;41.828;23.478;2022-11-30T01:03:08;8.25;;;6.18;;
9934;SDS011;5006;41.828;23.478;2022-11-30T01:04:14;6.70;;;6.10;;
9934;SDS011;5006;41.828;23.478;2022-11-30T01:05:20;6.47;;;5.90;;
9934;SDS011;5006;41.828;23.478;2022-11-30T01:06:25;6.57;;;5.97;;
9934;SDS011;5006;41.828;23.478;2022-11-30T01:07:31;6.47;;;5.85;;
9934;SDS011;5006;41.828;23.478;2022-11-30T01:08:36;6.22;;;5.72;;
9934;SDS011;5006;41.828;23.478;2022-11-30T01:09:42;6.60;;;6.00;;
9934;SDS011;5006;41.828;23.478;2022-11-30T01:10:47;6.63;;;6.03;;
9934;SDS011;5006;41.828;23.478;2022-11-30T01:11:56;6.43;;;5.82;;
9934;SDS011;5006;41.828;23.478;2022-11-30T01:13:01;7.00;;;6.30;;
9934;SDS011;5006;41.828;23.478;2022-11-30T01:14:07;7.13;;;6.35;;
9934;SDS011;5006;41.828;23.478;2022-11-30T01:15:11;6.93;;;6.30;;
9934;SDS011;5006;41.828;23.478;2022-11-30T01:16:18;7.05;;;6.35;;
9934;SDS011;5006;41.828;23.478;2022-11-30T01:17:27;6.65;;;5.97;;
9934;SDS011;5006;41.828;23.478;2022-11-30T01:18:34;7.00;;;6.40;;
9934;SDS011;5006;41.828;23.478;2022-11-30T01:19:39;7.90;;;6.38;;
9934;SDS011;5006;41.828;23.478;2022-11-30T01:20:45;7.88;;;7.07;;
9934;SDS011;5006;41.828;23.478;2022-11-30T01:21:50;7.45;;;6.75;;
9934;SDS011;5006;41.828;23.478;2022-11-30T01:22:57;6.78;;;6.18;;
9934;SDS011;5006;41.828;23.478;2022-11-30T01:24:01;7.13;;;6.35;;
9934;SDS011;5006;41.828;23.478;2022-11-30T01:25:07;7.22;;;6.45;;
9934;SDS011;5006;41.828;23.478;2022-11-30T01:26:12;6.95;;;6.25;;
9934;SDS011;5006;41.828;23.478;2022-11-30T01:27:19;7.05;;;6.38;;
9934;SDS011;5006;41.828;23.478;2022-11-30T01:28:24;7.03;;;6.32;;
9934;SDS011;5006;41.828;23.478;2022-11-30T01:29:30;6.95;;;6.25;;
9934;SDS011;5006;41.828;23.478;2022-11-30T01:30:35;6.53;;;5.93;;
9934;SDS011;5006;41.828;23.478;2022-11-30T01:31:41;6.82;;;6.22;;
9934;SDS011;5006;41.828;23.478;2022-11-30T01:32:47;7.15;;;6.45;;
9934;SDS011;5006;41.828;23.478;2022-11-30T01:33:53;6.95;;;6.30;;
9934;SDS011;5006;41.828;23.478;2022-11-30T01:34:59;7.20;;;6.55;;
9934;SDS011;5006;41.828;23.478;2022-11-30T01:36:06;7.30;;;6.60;;
9934;SDS011;5006;41.828;23.478;2022-11-30T01:37:14;7.55;;;6.85;;
9934;SDS011;5006;41.828;23.478;2022-11-30T01:38:18;6.97;;;6.38;;
9934;SDS011;5006;41.828;23.478;2022-11-30T01:39:24;7.22;;;6.53;;
9934;SDS011;5006;41.828;23.478;2022-11-30T01:40:29;6.60;;;6.00;;
9934;SDS011;5006;41.828;23.478;2022-11-30T01:41:35;7.03;;;6.32;;
9934;SDS011;5006;41.828;23.478;2022-11-30T01:42:44;7.13;;;6.20;;
9934;SDS011;5006;41.828;23.478;2022-11-30T01:43:51;8.80;;;6.10;;
9934;SDS011;5006;41.828;23.478;2022-11-30T01:44:57;6.57;;;5.93;;
9934;SDS011;5006;41.828;23.478;2022-11-30T01:46:04;7.18;;;6.45;;
9934;SDS011;5006;41.828;23.478;2022-11-30T01:47:10;6.53;;;5.93;;
9934;SDS011;5006;41.828;23.478;2022-11-30T01:48:17;6.80;;;6.20;;
9934;SDS011;5006;41.828;23.478;2022-11-30T01:49:26;7.15;;;6.45;;
9934;SDS011;5006;41.828;23.478;2022-11-30T01:50:34;6.65;;;6.05;;
9934;SDS011;5006;41.828;23.478;2022-11-30T01:51:42;6.82;;;6.22;;
9934;SDS011;5006;41.828;23.478;2022-11-30T01:52:50;6.60;;;6.00;;
9934;SDS011;5006;41.828;23.478;2022-11-30T01:53:58;6.55;;;5.85;;
9934;SDS011;5006;41.828;23.478;2022-11-30T01:55:07;6.28;;;5.68;;
9934;SDS011;5006;41.828;23.478;2022-11-30T01:56:19;6.43;;;5.75;;
9934;SDS011;5006;41.828;23.478;2022-11-30T01:57:25;6.10;;;5.50;;
9934;SDS011;5006;41.828;23.478;2022-11-30T01:58:34;7.03;;;6.38;;
9934;SDS011;5006;41.828;23.478;2022-11-30T01:59:39;5.72;;;5.22;;
9934;SDS011;5006;41.828;23.478;2022-11-30T02:00:46;6.72;;;6.05;;
9934;SDS011;5006;41.828;23.478;2022-11-30T02:01:51;5.95;;;5.35;;
9934;SDS011;5006;41.828;23.478;2022-11-30T02:02:59;7.50;;;5.80;;
9934;SDS011;5006;41.828;23.478;2022-11-30T02:04:12;6.20;;;5.70;;
9934;SDS011;5006;41.828;23.478;2022-11-30T02:05:23;5.55;;;5.05;;
9934;SDS011;5006;41.828;23.478;2022-11-30T02:06:29;6.10;;;5.50;;
9934;SDS011;5006;41.828;23.478;2022-11-30T02:07:34;6.53;;;5.78;;
9934;SDS011;5006;41.828;23.478;2022-11-30T02:08:40;6.18;;;5.57;;
9934;SDS011;5006;41.828;23.478;2022-11-30T02:09:45;5.88;;;5.38;;
9934;SDS011;5006;41.828;23.478;2022-11-30T02:10:52;5.90;;;5.40;;
9934;SDS011;5006;41.828;23.478;2022-11-30T02:12:01;6.10;;;5.50;;
9934;SDS011;5006;41.828;23.478;2022-11-30T02:13:16;6.07;;;5.53;;
9934;SDS011;5006;41.828;23.478;2022-11-30T02:14:35;5.68;;;5.18;;
9934;SDS011;5006;41.828;23.478;2022-11-30T02:15:48;5.50;;;5.00;;
9934;SDS011;5006;41.828;23.478;2022-11-30T02:17:04;5.47;;;4.85;;
9934;SDS011;5006;41.828;23.478;2022-11-30T02:18:18;5.82;;;5.22;;
9934;SDS011;5006;41.828;23.478;2022-11-30T02:21:18;5.55;;;5.05;;
9934;SDS011;5006;41.828;23.478;2022-11-30T02:22:33;5.63;;;4.78;;
9934;SDS011;5006;41.828;23.478;2022-11-30T02:25:35;4.93;;;4.47;;
9934;SDS011;5006;41.828;23.478;2022-11-30T02:28:35;5.35;;;4.85;;
9934;SDS011;5006;41.828;23.478;2022-11-30T02:29:52;5.47;;;4.97;;
9934;SDS011;5006;41.828;23.478;2022-11-30T02:31:01;5.47;;;4.97;;
9934;SDS011;5006;41.828;23.478;2022-11-30T02:32:11;4.93;;;4.50;;
9934;SDS011;5006;41.828;23.478;2022-11-30T02:33:22;5.10;;;4.68;;
9934;SDS011;5006;41.828;23.478;2022-11-30T02:34:31;5.30;;;4.80;;
9934;SDS011;5006;41.828;23.478;2022-11-30T02:35:40;5.13;;;4.63;;
9934;SDS011;5006;41.828;23.478;2022-11-30T02:36:48;7.65;;;4.30;;
9934;SDS011;5006;41.828;23.478;2022-11-30T02:37:54;4.78;;;4.38;;
9934;SDS011;5006;41.828;23.478;2022-11-30T02:39:01;4.65;;;4.25;;
9934;SDS011;5006;41.828;23.478;2022-11-30T02:40:09;4.90;;;4.47;;
9934;SDS011;5006;41.828;23.478;2022-11-30T02:41:17;4.68;;;4.28;;
9934;SDS011;5006;41.828;23.478;2022-11-30T02:42:22;4.03;;;3.63;;
9934;SDS011;5006;41.828;23.478;2022-11-30T02:43:28;4.65;;;4.25;;
9934;SDS011;5006;41.828;23.478;2022-11-30T02:44:36;4.72;;;4.00;;
9934;SDS011;5006;41.828;23.478;2022-11-30T02:45:43;4.13;;;3.72;;
9934;SDS011;5006;41.828;23.478;2022-11-30T02:46:59;4.88;;;3.50;;
9934;SDS011;5006;41.828;23.478;2022-11-30T02:48:13;5.40;;;3.70;;
9934;SDS011;5006;41.828;23.478;2022-11-30T02:49:26;4.40;;;4.00;;
9934;SDS011;5006;41.828;23.478;2022-11-30T02:50:36;4.32;;;3.60;;
9934;SDS011;5006;41.828;23.478;2022-11-30T02:51:44;4.55;;;3.28;;
9934;SDS011;5006;41.828;23.478;2022-11-30T02:52:52;4.43;;;3.50;;
9934;SDS011;5006;41.828;23.478;2022-11-30T02:53:58;3.60;;;3.30;;
9934;SDS011;5006;41.828;23.478;2022-11-30T02:55:04;3.60;;;3.30;;
9934;SDS011;5006;41.828;23.478;2022-11-30T02:56:11;3.70;;;3.30;;
9934;SDS011;5006;41.828;23.478;2022-11-30T02:57:15;3.63;;;3.33;;
9934;SDS011;5006;41.828;23.478;2022-11-30T02:58:21;3.47;;;3.17;;
9934;SDS011;5006;41.828;23.478;2022-11-30T02:59:26;3.25;;;2.95;;
9934;SDS011;5006;41.828;23.478;2022-11-30T03:00:34;2.80;;;2.60;;
9934;SDS011;5006;41.828;23.478;2022-11-30T03:01:38;3.45;;;3.15;;
9934;SDS011;5006;41.828;23.478;2022-11-30T03:02:45;3.30;;;3.00;;
9934;SDS011;5006;41.828;23.478;2022-11-30T03:03:50;3.38;;;3.08;;
9934;SDS011;5006;41.828;23.478;2022-11-30T03:04:55;3.08;;;2.88;;
9934;SDS011;5006;41.828;23.478;2022-11-30T03:06:00;3.28;;;3.05;;
9934;SDS011;5006;41.828;23.478;2022-11-30T03:07:06;3.38;;;2.58;;
9934;SDS011;5006;41.828;23.478;2022-11-30T03:08:11;3.60;;;2.95;;
9934;SDS011;5006;41.828;23.478;2022-11-30T03:09:16;3.13;;;2.92;;
9934;SDS011;5006;41.828;23.478;2022-11-30T03:10:21;3.28;;;2.97;;
9934;SDS011;5006;41.828;23.478;2022-11-30T03:11:26;3.30;;;3.00;;
9934;SDS011;5006;41.828;23.478;2022-11-30T03:12:31;2.72;;;2.53;;
9934;SDS011;5006;41.828;23.478;2022-11-30T03:13:37;2.92;;;2.72;;
9934;SDS011;5006;41.828;23.478;2022-11-30T03:14:42;2.88;;;2.63;;
9934;SDS011;5006;41.828;23.478;2022-11-30T03:15:49;2.78;;;2.47;;
9934;SDS011;5006;41.828;23.478;2022-11-30T03:16:54;2.30;;;2.10;;
9934;SDS011;5006;41.828;23.478;2022-11-30T03:18:00;2.65;;;2.45;;
9934;SDS011;5006;41.828;23.478;2022-11-30T03:19:05;2.60;;;2.38;;
9934;SDS011;5006;41.828;23.478;2022-11-30T03:20:11;3.05;;;2.20;;
9934;SDS011;5006;41.828;23.478;2022-11-30T03:21:15;2.75;;;2.20;;
9934;SDS011;5006;41.828;23.478;2022-11-30T03:22:21;2.00;;;1.90;;
9934;SDS011;5006;41.828;23.478;2022-11-30T03:23:25;2.63;;;2.38;;
9934;SDS011;5006;41.828;23.478;2022-11-30T03:24:33;2.33;;;1.95;;
9934;SDS011;5006;41.828;23.478;2022-11-30T03:25:39;2.20;;;2.00;;
9934;SDS011;5006;41.828;23.478;2022-11-30T03:26:44;2.40;;;2.20;;
9934;SDS011;5006;41.828;23.478;2022-11-30T03:27:50;2.80;;;1.98;;
9934;SDS011;5006;41.828;23.478;2022-11-30T03:28:54;2.30;;;2.10;;
9934;SDS011;5006;41.828;23.478;2022-11-30T03:30:00;2.10;;;2.00;;
9934;SDS011;5006;41.828;23.478;2022-11-30T03:31:06;2.35;;;2.13;;
9934;SDS011;5006;41.828;23.478;2022-11-30T03:32:15;2.38;;;2.17;;
9934;SDS011;5006;41.828;23.478;2022-11-30T03:33:19;2.30;;;2.10;;
9934;SDS011;5006;41.828;23.478;2022-11-30T03:34:24;2.70;;;2.17;;
9934;SDS011;5006;41.828;23.478;2022-11-30T03:35:30;2.30;;;2.10;;
9934;SDS011;5006;41.828;23.478;2022-11-30T03:36:36;2.08;;;1.98;;
9934;SDS011;5006;41.828;23.478;2022-11-30T03:37:40;2.05;;;1.60;;
9934;SDS011;5006;41.828;23.478;2022-11-30T03:38:46;2.10;;;1.95;;
9934;SDS011;5006;41.828;23.478;2022-11-30T03:39:50;2.75;;;2.00;;
9934;SDS011;5006;41.828;23.478;2022-11-30T03:41:00;1.77;;;1.67;;
9934;SDS011;5006;41.828;23.478;2022-11-30T03:42:05;1.88;;;1.63;;
9934;SDS011;5006;41.828;23.478;2022-11-30T03:43:10;2.13;;;1.77;;
9934;SDS011;5006;41.828;23.478;2022-11-30T03:44:14;1.70;;;1.60;;
9934;SDS011;5006;41.828;23.478;2022-11-30T03:45:20;2.00;;;1.90;;
9934;SDS011;5006;41.828;23.478;2022-11-30T03:46:27;2.50;;;1.80;;
9934;SDS011;5006;41.828;23.478;2022-11-30T03:47:33;1.60;;;1.50;;
9934;SDS011;5006;41.828;23.478;2022-11-30T03:48:37;1.75;;;1.65;;
9934;SDS011;5006;41.828;23.478;2022-11-30T03:49:44;1.70;;;1.60;;
9934;SDS011;5006;41.828;23.478;2022-11-30T03:50:48;1.73;;;1.63;;
9934;SDS011;5006;41.828;23.478;2022-11-30T03:51:54;1.90;;;1.80;;
9934;SDS011;5006;41.828;23.478;2022-11-30T03:52:58;1.70;;;1.60;;
9934;SDS011;5006;41.828;23.478;2022-11-30T03:54:04;1.77;;;1.65;;
9934;SDS011;5006;41.828;23.478;2022-11-30T03:55:09;1.60;;;1.50;;
9934;SDS011;5006;41.828;23.478;2022-11-30T03:56:15;2.00;;;1.80;;
9934;SDS011;5006;41.828;23.478;2022-11-30T03:57:19;2.58;;;1.50;;
9934;SDS011;5006;41.828;23.478;2022-11-30T03:58:25;3.38;;;1.70;;
9934;SDS011;5006;41.828;23.478;2022-11-30T03:59:30;1.90;;;1.70;;
9934;SDS011;5006;41.828;23.478;2022-11-30T04:00:35;1.88;;;1.77;;
9934;SDS011;5006;41.828;23.478;2022-11-30T04:01:41;3.28;;;1.60;;
9934;SDS011;5006;41.828;23.478;2022-11-30T04:02:47;1.80;;;1.70;;
9934;SDS011;5006;41.828;23.478;2022-11-30T04:03:52;1.90;;;1.70;;
9934;SDS011;5006;41.828;23.478;2022-11-30T04:04:58;1.50;;;1.40;;
9934;SDS011;5006;41.828;23.478;2022-11-30T04:06:03;2.03;;;1.60;;
9934;SDS011;5006;41.828;23.478;2022-11-30T04:07:09;2.00;;;1.80;;
9934;SDS011;5006;41.828;23.478;2022-11-30T04:08:14;3.42;;;2.22;;
9934;SDS011;5006;41.828;23.478;2022-11-30T04:09:19;2.25;;;2.05;;
9934;SDS011;5006;41.828;23.478;2022-11-30T04:10:24;2.15;;;1.95;;
9934;SDS011;5006;41.828;23.478;2022-11-30T04:11:30;2.00;;;1.90;;
9934;SDS011;5006;41.828;23.478;2022-11-30T04:12:36;2.22;;;2.00;;
9934;SDS011;5006;41.828;23.478;2022-11-30T04:13:40;2.17;;;1.98;;
9934;SDS011;5006;41.828;23.478;2022-11-30T04:14:47;2.45;;;2.20;;
9934;SDS011;5006;41.828;23.478;2022-11-30T04:15:52;1.95;;;1.80;;
9934;SDS011;5006;41.828;23.478;2022-11-30T04:17:00;3.15;;;2.00;;
9934;SDS011;5006;41.828;23.478;2022-11-30T04:18:05;2.22;;;1.77;;
9934;SDS011;5006;41.828;23.478;2022-11-30T04:19:10;1.90;;;1.70;;
9934;SDS011;5006;41.828;23.478;2022-11-30T04:20:15;1.60;;;1.48;;
9934;SDS011;5006;41.828;23.478;2022-11-30T04:21:21;1.55;;;1.45;;
9934;SDS011;5006;41.828;23.478;2022-11-30T04:22:26;1.90;;;1.70;;
9934;SDS011;5006;41.828;23.478;2022-11-30T04:23:32;2.45;;;1.60;;
9934;SDS011;5006;41.828;23.478;2022-11-30T04:24:38;2.47;;;1.60;;
9934;SDS011;5006;41.828;23.478;2022-11-30T04:25:43;1.92;;;1.70;;
9934;SDS011;5006;41.828;23.478;2022-11-30T04:26:48;1.70;;;1.60;;
9934;SDS011;5006;41.828;23.478;2022-11-30T04:27:53;1.63;;;1.50;;
9934;SDS011;5006;41.828;23.478;2022-11-30T04:28:58;1.83;;;1.65;;
9934;SDS011;5006;41.828;23.478;2022-11-30T04:30:04;2.28;;;1.55;;
9934;SDS011;5006;41.828;23.478;2022-11-30T04:31:10;1.85;;;1.75;;
9934;SDS011;5006;41.828;23.478;2022-11-30T04:32:17;1.58;;;1.40;;
9934;SDS011;5006;41.828;23.478;2022-11-30T04:33:22;2.03;;;1.33;;
9934;SDS011;5006;41.828;23.478;2022-11-30T04:34:28;1.50;;;1.40;;
9934;SDS011;5006;41.828;23.478;2022-11-30T04:35:37;1.42;;;1.23;;
9934;SDS011;5006;41.828;23.478;2022-11-30T04:36:45;1.35;;;1.25;;
9934;SDS011;5006;41.828;23.478;2022-11-30T04:37:49;1.60;;;1.38;;
9934;SDS011;5006;41.828;23.478;2022-11-30T04:38:55;2.17;;;1.35;;
9934;SDS011;5006;41.828;23.478;2022-11-30T04:40:00;1.25;;;1.15;;
9934;SDS011;5006;41.828;23.478;2022-11-30T04:41:06;1.50;;;1.40;;
9934;SDS011;5006;41.828;23.478;2022-11-30T04:42:11;2.20;;;1.70;;
9934;SDS011;5006;41.828;23.478;2022-11-30T04:43:17;1.88;;;1.63;;
9934;SDS011;5006;41.828;23.478;2022-11-30T04:44:22;2.10;;;1.80;;
9934;SDS011;5006;41.828;23.478;2022-11-30T04:45:28;1.60;;;1.50;;
9934;SDS011;5006;41.828;23.478;2022-11-30T04:46:32;1.48;;;1.38;;
9934;SDS011;5006;41.828;23.478;2022-11-30T04:47:39;1.60;;;1.50;;
9934;SDS011;5006;41.828;23.478;2022-11-30T04:48:44;1.55;;;1.45;;
9934;SDS011;5006;41.828;23.478;2022-11-30T04:49:50;1.42;;;1.33;;
9934;SDS011;5006;41.828;23.478;2022-11-30T04:50:58;1.40;;;1.30;;
9934;SDS011;5006;41.828;23.478;2022-11-30T04:52:05;1.30;;;1.20;;
9934;SDS011;5006;41.828;23.478;2022-11-30T04:53:10;1.33;;;1.20;;
9934;SDS011;5006;41.828;23.478;2022-11-30T04:54:16;1.30;;;1.20;;
9934;SDS011;5006;41.828;23.478;2022-11-30T04:55:20;1.20;;;1.10;;
9934;SDS011;5006;41.828;23.478;2022-11-30T04:56:26;1.20;;;1.10;;
9934;SDS011;5006;41.828;23.478;2022-11-30T04:57:32;1.17;;;1.05;;
9934;SDS011;5006;41.828;23.478;2022-11-30T04:58:37;3.95;;;1.13;;
9934;SDS011;5006;41.828;23.478;2022-11-30T04:59:42;0.85;;;0.85;;
9934;SDS011;5006;41.828;23.478;2022-11-30T05:00:47;0.80;;;0.80;;
9934;SDS011;5006;41.828;23.478;2022-11-30T05:03:19;0.93;;;0.82;;
9934;SDS011;5006;41.828;23.478;2022-11-30T05:04:24;1.00;;;0.90;;
9934;SDS011;5006;41.828;23.478;2022-11-30T05:05:30;0.90;;;0.90;;
9934;SDS011;5006;41.828;23.478;2022-11-30T05:06:36;0.90;;;0.82;;
9934;SDS011;5006;41.828;23.478;2022-11-30T05:07:40;0.88;;;0.88;;
9934;SDS011;5006;41.828;23.478;2022-11-30T05:08:46;0.85;;;0.85;;
9934;SDS011;5006;41.828;23.478;2022-11-30T05:09:51;0.80;;;0.80;;
9934;SDS011;5006;41.828;23.478;2022-11-30T05:10:57;0.85;;;0.85;;
9934;SDS011;5006;41.828;23.478;2022-11-30T05:12:01;0.77;;;0.77;;
9934;SDS011;5006;41.828;23.478;2022-11-30T05:13:07;0.75;;;0.75;;
9934;SDS011;5006;41.828;23.478;2022-11-30T05:14:11;0.80;;;0.80;;
9934;SDS011;5006;41.828;23.478;2022-11-30T05:15:17;0.70;;;0.70;;
9934;SDS011;5006;41.828;23.478;2022-11-30T05:16:22;0.90;;;0.90;;
9934;SDS011;5006;41.828;23.478;2022-11-30T05:17:28;1.13;;;0.90;;
9934;SDS011;5006;41.828;23.478;2022-11-30T05:18:34;0.80;;;0.80;;
9934;SDS011;5006;41.828;23.478;2022-11-30T05:19:40;1.80;;;0.80;;
9934;SDS011;5006;41.828;23.478;2022-11-30T05:20:48;1.13;;;0.80;;
9934;SDS011;5006;41.828;23.478;2022-11-30T05:21:54;0.63;;;0.63;;
9934;SDS011;5006;41.828;23.478;2022-11-30T05:22:59;0.80;;;0.80;;
9934;SDS011;5006;41.828;23.478;2022-11-30T05:24:05;0.80;;;0.75;;
9934;SDS011;5006;41.828;23.478;2022-11-30T05:25:10;0.80;;;0.80;;
9934;SDS011;5006;41.828;23.478;2022-11-30T05:26:17;1.00;;;0.90;;
9934;SDS011;5006;41.828;23.478;2022-11-30T05:27:22;0.73;;;0.70;;
9934;SDS011;5006;41.828;23.478;2022-11-30T05:28:27;1.02;;;0.93;;
9934;SDS011;5006;41.828;23.478;2022-11-30T05:29:32;0.88;;;0.88;;
9934;SDS011;5006;41.828;23.478;2022-11-30T05:30:40;0.90;;;0.90;;
9934;SDS011;5006;41.828;23.478;2022-11-30T05:31:45;0.80;;;0.80;;
9934;SDS011;5006;41.828;23.478;2022-11-30T05:32:51;0.70;;;0.70;;
9934;SDS011;5006;41.828;23.478;2022-11-30T05:33:57;0.80;;;0.80;;
9934;SDS011;5006;41.828;23.478;2022-11-30T05:35:03;1.02;;;0.70;;
9934;SDS011;5006;41.828;23.478;2022-11-30T05:36:09;1.80;;;0.88;;
9934;SDS011;5006;41.828;23.478;2022-11-30T05:37:15;0.70;;;0.70;;
9934;SDS011;5006;41.828;23.478;2022-11-30T05:38:20;1.27;;;0.90;;
9934;SDS011;5006;41.828;23.478;2022-11-30T05:39:26;0.75;;;0.75;;
9934;SDS011;5006;41.828;23.478;2022-11-30T05:40:30;0.60;;;0.60;;
9934;SDS011;5006;41.828;23.478;2022-11-30T05:41:36;0.70;;;0.70;;
9934;SDS011;5006;41.828;23.478;2022-11-30T05:42:41;0.68;;;0.68;;
9934;SDS011;5006;41.828;23.478;2022-11-30T05:43:47;0.63;;;0.63;;
9934;SDS011;5006;41.828;23.478;2022-11-30T05:44:51;1.48;;;0.80;;
9934;SDS011;5006;41.828;23.478;2022-11-30T05:46:00;0.60;;;0.60;;
9934;SDS011;5006;41.828;23.478;2022-11-30T05:47:06;0.80;;;0.80;;
9934;SDS011;5006;41.828;23.478;2022-11-30T05:48:12;0.75;;;0.75;;
9934;SDS011;5006;41.828;23.478;2022-11-30T05:49:18;0.93;;;0.70;;
9934;SDS011;5006;41.828;23.478;2022-11-30T05:50:24;0.77;;;0.77;;
9934;SDS011;5006;41.828;23.478;2022-11-30T05:51:29;0.77;;;0.77;;
9934;SDS011;5006;41.828;23.478;2022-11-30T05:52:35;0.60;;;0.60;;
9934;SDS011;5006;41.828;23.478;2022-11-30T05:53:39;0.73;;;0.65;;
9934;SDS011;5006;41.828;23.478;2022-11-30T05:54:45;1.60;;;0.90;;
9934;SDS011;5006;41.828;23.478;2022-11-30T05:55:50;3.78;;;3.40;;
9934;SDS011;5006;41.828;23.478;2022-11-30T05:56:56;6.80;;;5.53;;
9934;SDS011;5006;41.828;23.478;2022-11-30T05:58:01;1.40;;;1.30;;
9934;SDS011;5006;41.828;23.478;2022-11-30T05:59:07;0.80;;;0.80;;
9934;SDS011;5006;41.828;23.478;2022-11-30T06:00:14;1.08;;;0.80;;
9934;SDS011;5006;41.828;23.478;2022-11-30T06:01:20;1.02;;;0.90;;
9934;SDS011;5006;41.828;23.478;2022-11-30T06:02:27;0.73;;;0.70;;
9934;SDS011;5006;41.828;23.478;2022-11-30T06:03:32;0.60;;;0.60;;
9934;SDS011;5006;41.828;23.478;2022-11-30T06:04:40;1.65;;;0.77;;
9934;SDS011;5006;41.828;23.478;2022-11-30T06:05:48;2.67;;;0.90;;
9934;SDS011;5006;41.828;23.478;2022-11-30T06:06:54;1.27;;;1.10;;
9934;SDS011;5006;41.828;23.478;2022-11-30T06:08:00;3.00;;;2.63;;
9934;SDS011;5006;41.828;23.478;2022-11-30T06:09:04;3.42;;;2.75;;
9934;SDS011;5006;41.828;23.478;2022-11-30T06:10:11;2.42;;;2.08;;
9934;SDS011;5006;41.828;23.478;2022-11-30T06:11:17;1.48;;;1.25;;
9934;SDS011;5006;41.828;23.478;2022-11-30T06:12:21;1.13;;;1.00;;
9934;SDS011;5006;41.828;23.478;2022-11-30T06:13:27;1.33;;;1.10;;
9934;SDS011;5006;41.828;23.478;2022-11-30T06:14:32;1.40;;;1.30;;
9934;SDS011;5006;41.828;23.478;2022-11-30T06:15:38;1.20;;;1.10;;
9934;SDS011;5006;41.828;23.478;2022-11-30T06:16:43;1.65;;;1.23;;
9934;SDS011;5006;41.828;23.478;2022-11-30T06:17:49;1.50;;;1.40;;
9934;SDS011;5006;41.828;23.478;2022-11-30T06:18:53;1.58;;;1.48;;
9934;SDS011;5006;41.828;23.478;2022-11-30T06:20:00;1.30;;;1.20;;
9934;SDS011;5006;41.828;23.478;2022-11-30T06:21:06;1.90;;;1.80;;
9934;SDS011;5006;41.828;23.478;2022-11-30T06:22:12;1.58;;;1.48;;
9934;SDS011;5006;41.828;23.478;2022-11-30T06:23:17;1.70;;;1.60;;
9934;SDS011;5006;41.828;23.478;2022-11-30T06:24:23;2.10;;;1.20;;
9934;SDS011;5006;41.828;23.478;2022-11-30T06:25:29;0.80;;;0.80;;
9934;SDS011;5006;41.828;23.478;2022-11-30T06:26:34;1.98;;;1.70;;
9934;SDS011;5006;41.828;23.478;2022-11-30T06:27:39;2.72;;;2.53;;
9934;SDS011;5006;41.828;23.478;2022-11-30T06:28:46;4.47;;;3.08;;
9934;SDS011;5006;41.828;23.478;2022-11-30T06:29:52;7.30;;;4.55;;
9934;SDS011;5006;41.828;23.478;2022-11-30T06:30:57;2.35;;;2.10;;
9934;SDS011;5006;41.828;23.478;2022-11-30T06:32:02;2.53;;;2.30;;
9934;SDS011;5006;41.828;23.478;2022-11-30T06:33:11;2.60;;;1.60;;
9934;SDS011;5006;41.828;23.478;2022-11-30T06:34:16;2.50;;;2.30;;
9934;SDS011;5006;41.828;23.478;2022-11-30T06:35:23;3.00;;;2.72;;
9934;SDS011;5006;41.828;23.478;2022-11-30T06:36:29;1.67;;;1.58;;
9934;SDS011;5006;41.828;23.478;2022-11-30T06:37:35;1.67;;;1.10;;
9934;SDS011;5006;41.828;23.478;2022-11-30T06:38:40;1.20;;;1.10;;
9934;SDS011;5006;41.828;23.478;2022-11-30T06:39:45;1.98;;;1.10;;
9934;SDS011;5006;41.828;23.478;2022-11-30T06:40:50;1.17;;;1.08;;
9934;SDS011;5006;41.828;23.478;2022-11-30T06:41:56;1.60;;;1.50;;
9934;SDS011;5006;41.828;23.478;2022-11-30T06:43:00;3.65;;;2.42;;
9934;SDS011;5006;41.828;23.478;2022-11-30T06:44:06;4.25;;;3.45;;
9934;SDS011;5006;41.828;23.478;2022-11-30T06:45:12;2.03;;;1.50;;
9934;SDS011;5006;41.828;23.478;2022-11-30T06:46:17;3.80;;;1.85;;
9934;SDS011;5006;41.828;23.478;2022-11-30T06:47:25;3.10;;;1.63;;
9934;SDS011;5006;41.828;23.478;2022-11-30T06:48:31;3.83;;;1.50;;
9934;SDS011;5006;41.828;23.478;2022-11-30T06:49:36;3.13;;;1.38;;
9934;SDS011;5006;41.828;23.478;2022-11-30T06:50:43;1.33;;;1.05;;
9934;SDS011;5006;41.828;23.478;2022-11-30T06:51:48;1.25;;;0.80;;